createdAt,value
2022-12-28T00:01:33.105Z,99.90
2022-12-28T00:04:02.104Z,99.80
2022-12-28T00:06:29.129Z,99.90
2022-12-28T00:08:57.196Z,99.90
2022-12-28T00:11:30.759Z,99.80
2022-12-28T00:14:00.866Z,99.00
2022-12-28T00:16:31.128Z,99.40
2022-12-28T00:18:59.966Z,98.80
2022-12-28T00:21:27.242Z,98.90
2022-12-28T00:23:57.392Z,98.20
2022-12-28T00:26:32.919Z,97.70
2022-12-28T00:29:04.901Z,97.50
2022-12-28T00:31:34.170Z,97.60
2022-12-28T00:34:01.911Z,97.70
2022-12-28T00:37:10.916Z,97.60
2022-12-28T00:39:15.423Z,98.30
2022-12-28T00:41:42.223Z,99.20
2022-12-28T00:44:09.190Z,99.40
2022-12-28T00:46:36.115Z,99.30
2022-12-28T00:49:02.947Z,99.50
2022-12-28T00:51:30.122Z,99.60
2022-12-28T00:53:56.955Z,99.50
2022-12-28T00:56:24.389Z,99.80
2022-12-28T00:58:55.215Z,99.80
2022-12-28T01:01:24.153Z,99.80
2022-12-28T01:03:51.034Z,99.60
2022-12-28T01:06:20.397Z,99.20
2022-12-28T01:08:47.386Z,99.30
2022-12-28T01:11:19.447Z,99.70
2022-12-28T01:13:46.810Z,99.50
2022-12-28T01:16:15.766Z,99.90
2022-12-28T01:18:43.519Z,99.90
2022-12-28T01:21:16.494Z,99.90
2022-12-28T01:23:44.326Z,99.90
2022-12-28T01:26:11.717Z,99.90
2022-12-28T01:28:38.533Z,99.90
2022-12-28T01:31:09.800Z,99.90
2022-12-28T01:33:36.581Z,99.90
2022-12-28T01:36:14.058Z,99.90
2022-12-28T01:38:42.036Z,99.90
2022-12-28T01:41:11.379Z,99.90
2022-12-28T01:43:41.751Z,99.90
2022-12-28T01:46:12.403Z,99.90
2022-12-28T01:48:52.221Z,99.90
2022-12-28T01:51:21.134Z,99.90
2022-12-28T01:53:50.378Z,99.90
2022-12-28T01:56:17.426Z,99.90
2022-12-28T01:58:44.844Z,99.90
2022-12-28T02:01:11.863Z,99.90
2022-12-28T02:03:38.764Z,99.90
2022-12-28T02:06:09.551Z,99.90
2022-12-28T02:08:49.372Z,99.90
2022-12-28T02:11:18.491Z,99.90
2022-12-28T02:13:47.445Z,99.90
2022-12-28T02:16:14.475Z,99.90
2022-12-28T02:18:43.792Z,99.90
2022-12-28T02:21:20.134Z,99.90
2022-12-28T02:24:08.495Z,99.90
2022-12-28T02:27:07.968Z,99.90
2022-12-28T02:29:46.524Z,99.90
2022-12-28T02:32:39.008Z,99.90
2022-12-28T02:35:28.509Z,99.90
2022-12-28T02:38:00.642Z,99.90
2022-12-28T02:40:32.583Z,99.90
2022-12-28T02:43:02.199Z,99.90
2022-12-28T02:45:58.291Z,99.90
2022-12-28T02:48:44.560Z,99.90
2022-12-28T02:51:17.029Z,99.90
2022-12-28T02:53:57.204Z,99.90
2022-12-28T02:57:01.117Z,99.90
2022-12-28T03:00:10.778Z,99.90
2022-12-28T03:03:01.978Z,99.90
2022-12-28T03:06:08.380Z,99.90
2022-12-28T03:09:02.163Z,99.90
2022-12-28T03:11:48.352Z,99.90
2022-12-28T03:14:24.191Z,99.90
2022-12-28T03:17:14.613Z,99.90
2022-12-28T03:20:04.571Z,99.90
2022-12-28T03:22:53.812Z,99.90
2022-12-28T03:25:43.138Z,99.90
2022-12-28T03:28:30.567Z,99.90
2022-12-28T03:31:09.190Z,99.90
2022-12-28T03:33:41.802Z,99.90
2022-12-28T03:36:11.247Z,99.90
2022-12-28T03:39:07.348Z,99.90
2022-12-28T03:41:37.407Z,99.90
2022-12-28T03:44:11.363Z,99.90
2022-12-28T03:46:49.360Z,99.90
2022-12-28T03:49:16.350Z,99.90
2022-12-28T03:51:46.359Z,99.90
2022-12-28T03:54:18.982Z,99.90
2022-12-28T03:56:50.839Z,99.90
2022-12-28T03:59:18.313Z,99.90
2022-12-28T04:01:45.231Z,99.90
2022-12-28T04:04:12.332Z,99.90
2022-12-28T04:06:39.585Z,99.90
2022-12-28T04:09:06.741Z,99.90
2022-12-28T04:11:33.510Z,99.90
2022-12-28T04:14:04.217Z,99.90
2022-12-28T04:16:33.702Z,99.90
2022-12-28T04:19:00.439Z,99.90
2022-12-28T04:21:27.216Z,99.90
2022-12-28T04:23:54.078Z,99.90
2022-12-28T04:26:20.974Z,99.90
2022-12-28T04:28:47.659Z,99.90
2022-12-28T04:31:14.862Z,99.90
2022-12-28T04:33:41.913Z,99.90
2022-12-28T04:36:10.036Z,99.90
2022-12-28T04:38:37.401Z,99.90
2022-12-28T04:41:05.448Z,99.90
2022-12-28T04:43:34.044Z,99.90
2022-12-28T04:46:06.286Z,99.90
2022-12-28T04:48:34.019Z,99.90
2022-12-28T04:51:10.819Z,99.90
2022-12-28T04:53:38.837Z,99.90
2022-12-28T04:56:06.995Z,99.90
2022-12-28T04:58:34.309Z,99.90
2022-12-28T05:01:11.484Z,99.90
2022-12-28T05:03:39.706Z,99.90
2022-12-28T05:06:10.337Z,99.90
2022-12-28T05:08:38.336Z,99.90
2022-12-28T05:11:07.950Z,99.90
2022-12-28T05:13:35.466Z,99.90
2022-12-28T05:16:08.024Z,99.90
2022-12-28T05:18:35.317Z,99.90
2022-12-28T05:21:15.908Z,99.90
2022-12-28T05:23:43.328Z,99.90
2022-12-28T05:26:13.298Z,99.90
2022-12-28T05:28:40.684Z,99.90
2022-12-28T05:31:10.337Z,99.90
2022-12-28T05:33:37.863Z,99.90
2022-12-28T05:36:09.532Z,99.90
2022-12-28T05:38:37.208Z,99.90
2022-12-28T05:41:09.443Z,99.90
2022-12-28T05:43:36.331Z,99.90
2022-12-28T05:46:05.366Z,99.90
2022-12-28T05:48:34.428Z,99.90
2022-12-28T05:51:10.237Z,99.90
2022-12-28T05:53:38.149Z,99.90
2022-12-28T05:56:16.022Z,99.90
2022-12-28T05:58:44.166Z,99.90
2022-12-28T06:01:17.048Z,99.90
2022-12-28T06:03:44.730Z,99.90
2022-12-28T06:06:14.241Z,99.90
2022-12-28T06:08:41.918Z,99.90
2022-12-28T06:11:11.478Z,99.90
2022-12-28T06:13:38.985Z,99.90
2022-12-28T06:16:07.591Z,99.90
2022-12-28T06:18:34.833Z,99.90
2022-12-28T06:21:11.561Z,99.50
2022-12-28T06:23:40.723Z,99.60
2022-12-28T06:26:08.678Z,99.60
2022-12-28T06:28:39.021Z,99.40
2022-12-28T06:31:18.636Z,99.40
2022-12-28T06:33:46.647Z,99.20
2022-12-28T06:36:20.689Z,98.90
2022-12-28T06:38:49.365Z,99.00
2022-12-28T06:41:18.295Z,99.10
2022-12-28T06:43:46.164Z,99.20
2022-12-28T06:46:14.584Z,98.60
2022-12-28T06:48:42.262Z,99.10
2022-12-28T06:51:18.923Z,99.00
2022-12-28T06:53:47.022Z,99.10
2022-12-28T06:56:16.855Z,99.50
2022-12-28T06:58:44.717Z,99.50
2022-12-28T07:01:21.879Z,99.40
2022-12-28T07:03:50.684Z,99.60
2022-12-28T07:06:19.293Z,99.80
2022-12-28T07:08:46.474Z,99.60
2022-12-28T07:11:15.467Z,99.70
2022-12-28T07:13:42.360Z,99.90
2022-12-28T07:16:23.278Z,99.90
2022-12-28T07:18:50.448Z,99.90
2022-12-28T07:21:21.492Z,99.90
2022-12-28T07:23:50.131Z,99.90
2022-12-28T07:26:22.381Z,99.90
2022-12-28T07:28:51.871Z,99.90
2022-12-28T07:31:20.894Z,99.90
2022-12-28T07:33:50.708Z,99.90
2022-12-28T07:36:20.189Z,99.90
2022-12-28T07:38:47.604Z,99.90
2022-12-28T07:41:17.642Z,99.90
2022-12-28T07:43:44.394Z,99.90
2022-12-28T07:46:12.254Z,99.90
2022-12-28T07:48:39.889Z,99.90
2022-12-28T07:51:14.060Z,99.90
2022-12-28T07:53:42.589Z,99.90
2022-12-28T07:56:10.209Z,99.90
2022-12-28T07:58:37.318Z,99.90
2022-12-28T08:01:12.071Z,99.90
2022-12-28T08:03:40.333Z,99.90
2022-12-28T08:06:10.320Z,99.90
2022-12-28T08:08:38.695Z,99.90
2022-12-28T08:11:07.069Z,99.90
2022-12-28T08:13:35.702Z,99.90
2022-12-28T08:16:02.906Z,99.60
2022-12-28T08:18:30.348Z,99.80
2022-12-28T08:21:01.866Z,99.70
2022-12-28T08:23:29.671Z,99.90
2022-12-28T08:25:56.514Z,99.60
2022-12-28T08:28:23.408Z,99.90
2022-12-28T08:30:50.186Z,99.70
2022-12-28T08:33:16.945Z,99.60
2022-12-28T08:35:43.724Z,99.80
2022-12-28T08:38:10.396Z,99.40
2022-12-28T08:40:37.086Z,99.40
2022-12-28T08:43:03.805Z,99.40
2022-12-28T08:45:30.611Z,99.30
2022-12-28T08:47:57.425Z,99.20
2022-12-28T08:50:31.188Z,99.10
2022-12-28T08:52:58.456Z,99.70
2022-12-28T08:55:25.171Z,99.80
2022-12-28T08:57:51.933Z,99.90
2022-12-28T09:00:18.950Z,99.90
2022-12-28T09:02:45.699Z,99.50
2022-12-28T09:05:12.531Z,99.40
2022-12-28T09:07:39.236Z,99.40
2022-12-28T09:10:06.654Z,99.30
2022-12-28T09:12:33.492Z,99.00
2022-12-28T09:15:00.207Z,99.00
2022-12-28T09:17:26.967Z,99.10
2022-12-28T09:19:53.664Z,98.80
2022-12-28T09:22:20.347Z,99.50
2022-12-28T09:24:47.159Z,99.90
2022-12-28T09:27:13.859Z,99.90
2022-12-28T09:29:40.506Z,99.90
2022-12-28T09:32:07.540Z,99.90
2022-12-28T09:34:37.687Z,99.90
2022-12-28T09:37:06.205Z,99.90
2022-12-28T09:39:33.100Z,99.90
2022-12-28T09:42:04.605Z,99.90
2022-12-28T09:45:04.161Z,98.90
2022-12-28T09:47:51.894Z,99.50
2022-12-28T09:50:18.768Z,98.50
2022-12-28T09:53:06.513Z,98.90
2022-12-28T09:55:35.978Z,98.50
2022-12-28T09:58:05.352Z,98.30
2022-12-28T10:00:42.809Z,97.70
2022-12-28T10:03:16.081Z,97.50
2022-12-28T10:05:43.563Z,97.40
2022-12-28T10:08:15.542Z,97.70
2022-12-28T10:10:48.460Z,97.80
2022-12-28T10:16:18.527Z,97.20
2022-12-28T10:18:46.163Z,96.90
2022-12-28T10:21:13.979Z,97.70
2022-12-28T10:24:12.169Z,97.10
2022-12-28T10:26:30.152Z,97.10
2022-12-28T10:29:00.938Z,96.70
2022-12-28T10:31:36.557Z,96.50
2022-12-28T10:34:20.833Z,97.50
2022-12-28T10:36:49.227Z,96.40
2022-12-28T10:39:25.341Z,96.80
2022-12-28T10:41:53.312Z,96.50
2022-12-28T10:44:39.335Z,96.40
2022-12-28T10:47:18.125Z,96.30
2022-12-28T10:50:10.471Z,96.10
2022-12-28T10:52:37.924Z,96.10
2022-12-28T10:55:29.026Z,96.10
2022-12-28T10:58:27.838Z,96.50
2022-12-28T11:00:48.569Z,95.00
2022-12-28T11:03:23.777Z,95.60
2022-12-28T11:05:57.074Z,95.90
2022-12-28T11:08:24.285Z,96.30
2022-12-28T11:10:57.710Z,96.90
2022-12-28T11:13:24.437Z,97.30
2022-12-28T11:15:51.260Z,97.70
2022-12-28T11:18:19.871Z,97.50
2022-12-28T11:20:49.650Z,97.50
2022-12-28T11:23:31.627Z,98.00
2022-12-28T11:25:59.159Z,97.90
2022-12-28T11:28:25.904Z,98.30
2022-12-28T11:30:52.971Z,98.20
2022-12-28T11:33:44.457Z,98.20
2022-12-28T11:36:26.686Z,97.30
2022-12-28T11:38:56.387Z,97.10
2022-12-28T11:41:33.426Z,97.10
2022-12-28T11:44:04.571Z,96.70
2022-12-28T11:46:31.335Z,96.30
2022-12-28T11:49:02.267Z,96.00
2022-12-28T11:51:36.678Z,96.10
2022-12-28T11:54:21.987Z,94.80
2022-12-28T11:56:51.423Z,95.30
2022-12-28T11:59:28.524Z,95.10
2022-12-28T12:02:00.603Z,94.70
2022-12-28T12:04:29.828Z,94.80
2022-12-28T12:07:01.371Z,94.30
2022-12-28T12:09:38.424Z,94.10
2022-12-28T12:12:17.866Z,93.80
2022-12-28T12:14:54.943Z,93.30
2022-12-28T12:17:58.300Z,92.80
2022-12-28T12:20:39.469Z,92.00
2022-12-28T12:23:12.065Z,91.80
2022-12-28T12:25:44.841Z,90.20
2022-12-28T12:28:29.165Z,90.00
2022-12-28T12:30:57.597Z,92.00
2022-12-28T12:33:26.892Z,91.30
2022-12-28T12:36:33.115Z,93.30
2022-12-28T12:39:24.443Z,91.30
2022-12-28T12:42:34.335Z,90.40
2022-12-28T12:45:27.736Z,87.80
2022-12-28T12:48:09.297Z,85.80
2022-12-28T12:50:57.726Z,85.00
2022-12-28T12:53:43.157Z,80.50
2022-12-28T12:56:50.593Z,81.60
2022-12-28T12:59:48.069Z,84.00
2022-12-28T13:02:23.968Z,87.00
2022-12-28T13:04:51.174Z,83.40
2022-12-28T13:07:24.698Z,83.20
2022-12-28T13:09:54.558Z,79.80
2022-12-28T13:12:21.812Z,77.70
2022-12-28T13:15:00.533Z,79.80
2022-12-28T13:17:28.757Z,80.10
2022-12-28T13:20:19.091Z,77.30
2022-12-28T13:22:48.187Z,78.30
2022-12-28T13:25:32.674Z,79.10
2022-12-28T13:28:03.846Z,80.70
2022-12-28T13:30:30.896Z,79.90
2022-12-28T13:33:00.354Z,78.00
2022-12-28T13:35:30.408Z,77.80
2022-12-28T13:38:19.185Z,80.50
2022-12-28T13:40:51.899Z,79.30
2022-12-28T13:43:21.478Z,79.40
2022-12-28T13:45:52.773Z,78.80
2022-12-28T13:48:20.317Z,79.60
2022-12-28T13:50:47.385Z,78.30
2022-12-28T13:53:25.223Z,79.20
2022-12-28T13:55:58.631Z,78.00
2022-12-28T13:58:31.598Z,79.40
2022-12-28T14:01:00.890Z,78.60
2022-12-28T14:03:28.534Z,77.10
2022-12-28T14:06:02.161Z,77.10
2022-12-28T14:08:33.120Z,74.60
2022-12-28T14:11:00.715Z,75.30
2022-12-28T14:13:28.303Z,74.30
2022-12-28T14:15:55.265Z,73.00
2022-12-28T14:18:22.256Z,72.50
2022-12-28T14:20:51.076Z,72.90
2022-12-28T14:23:22.138Z,71.40
2022-12-28T14:25:49.920Z,70.60
2022-12-28T14:28:29.901Z,71.20
2022-12-28T14:30:57.274Z,71.10
2022-12-28T14:33:27.725Z,71.20
2022-12-28T14:35:59.889Z,70.30
2022-12-28T14:38:39.977Z,69.10
2022-12-28T14:41:07.058Z,67.50
2022-12-28T14:43:37.264Z,66.80
2022-12-28T14:46:27.994Z,66.30
2022-12-28T14:48:54.842Z,64.90
2022-12-28T14:51:21.578Z,64.90
2022-12-28T14:54:14.950Z,64.80
2022-12-28T14:56:41.946Z,64.40
2022-12-28T14:59:19.482Z,65.20
2022-12-28T15:01:47.586Z,64.60
2022-12-28T15:04:36.956Z,65.90
2022-12-28T15:07:05.847Z,64.50
2022-12-28T15:09:33.094Z,63.80
2022-12-28T15:12:21.890Z,64.50
2022-12-28T15:14:51.655Z,65.00
2022-12-28T15:17:18.942Z,64.70
2022-12-28T15:19:45.894Z,65.30
2022-12-28T15:22:13.388Z,65.80
2022-12-28T15:24:41.757Z,65.30
2022-12-28T15:27:08.603Z,65.60
2022-12-28T15:32:22.182Z,65.50
2022-12-28T15:34:48.910Z,65.10
2022-12-28T15:37:15.683Z,65.30
2022-12-28T15:39:42.489Z,65.10
2022-12-28T15:42:09.266Z,64.80
2022-12-28T15:44:36.019Z,65.90
2022-12-28T15:47:02.770Z,63.90
2022-12-28T15:49:29.499Z,63.70
2022-12-28T15:51:56.310Z,63.50
2022-12-28T15:54:23.050Z,63.00
2022-12-28T15:56:54.569Z,63.10
2022-12-28T15:59:21.456Z,62.30
2022-12-28T16:01:48.706Z,61.10
2022-12-28T16:04:15.598Z,60.00
2022-12-28T16:06:44.929Z,60.50
2022-12-28T16:09:12.949Z,59.60
2022-12-28T16:11:40.725Z,58.50
2022-12-28T16:14:12.941Z,57.30
2022-12-28T16:16:40.614Z,56.30
2022-12-28T16:19:08.922Z,56.60
2022-12-28T16:21:36.867Z,55.90
2022-12-28T16:24:03.950Z,56.60
2022-12-28T16:26:30.679Z,55.20
2022-12-28T16:29:00.094Z,55.20
2022-12-28T16:31:28.313Z,55.20
2022-12-28T16:33:57.688Z,55.00
2022-12-28T16:36:25.395Z,55.20
2022-12-28T16:38:52.796Z,55.30
2022-12-28T16:41:20.608Z,55.60
2022-12-28T16:43:48.580Z,55.60
2022-12-28T16:46:15.652Z,55.60
2022-12-28T16:48:42.743Z,55.20
2022-12-28T16:51:10.039Z,54.90
2022-12-28T16:53:37.541Z,54.70
2022-12-28T16:56:06.062Z,54.90
2022-12-28T16:58:33.697Z,54.70
2022-12-28T17:01:07.266Z,54.90
2022-12-28T17:03:34.879Z,54.90
2022-12-28T17:06:02.112Z,55.30
2022-12-28T17:08:29.232Z,55.00
2022-12-28T17:10:56.304Z,55.50
2022-12-28T17:13:23.279Z,55.80
2022-12-28T17:15:50.276Z,56.30
2022-12-28T17:18:17.130Z,58.20
2022-12-28T17:20:45.236Z,59.30
2022-12-28T17:23:13.235Z,62.00
2022-12-28T17:25:40.231Z,62.20
2022-12-28T17:28:07.022Z,65.40
2022-12-28T17:30:33.872Z,66.30
2022-12-28T17:33:00.681Z,67.50
2022-12-28T17:35:27.511Z,70.20
2022-12-28T17:37:54.238Z,70.50
2022-12-28T17:40:20.992Z,74.20
2022-12-28T17:42:48.028Z,74.40
2022-12-28T17:45:14.874Z,75.60
2022-12-28T17:47:41.593Z,80.00
2022-12-28T17:50:08.883Z,83.10
2022-12-28T17:52:36.094Z,86.90
2022-12-28T17:55:03.620Z,89.70
2022-12-28T17:57:35.309Z,91.00
2022-12-28T18:00:06.493Z,92.20
2022-12-28T18:02:33.646Z,92.90
2022-12-28T18:05:00.512Z,94.20
2022-12-28T18:07:27.617Z,95.60
2022-12-28T18:09:54.793Z,95.10
2022-12-28T18:12:21.510Z,96.30
2022-12-28T18:14:48.278Z,97.50
2022-12-28T18:17:19.108Z,98.90
2022-12-28T18:19:46.049Z,99.40
2022-12-28T18:22:12.753Z,99.90
2022-12-28T18:24:39.647Z,99.90
2022-12-28T18:27:06.493Z,99.90
2022-12-28T18:29:33.262Z,99.90
2022-12-28T18:31:59.982Z,99.90
2022-12-28T18:34:26.828Z,99.90
2022-12-28T18:36:53.511Z,99.90
2022-12-28T18:39:20.349Z,99.90
2022-12-28T18:41:47.099Z,99.90
2022-12-28T18:44:13.979Z,99.90
2022-12-28T18:46:40.878Z,99.90
2022-12-28T18:49:07.683Z,99.90
2022-12-28T18:51:34.414Z,99.90
2022-12-28T18:54:01.198Z,99.90
2022-12-28T18:56:27.912Z,99.90
2022-12-28T18:58:56.414Z,99.90
2022-12-28T19:04:12.894Z,99.90
2022-12-28T19:06:39.976Z,99.90
2022-12-28T19:09:08.357Z,99.90
2022-12-28T19:11:36.383Z,99.90
2022-12-28T19:14:04.565Z,99.90
2022-12-28T19:16:32.391Z,99.90
2022-12-28T19:19:00.172Z,99.90
2022-12-28T19:21:38.250Z,99.90
2022-12-28T19:24:09.126Z,99.90
2022-12-28T19:26:36.340Z,99.90
2022-12-28T19:29:03.735Z,99.90
2022-12-28T19:31:31.455Z,99.90
2022-12-28T19:33:58.658Z,99.90
2022-12-28T19:36:26.091Z,99.90
2022-12-28T19:38:55.080Z,99.90
2022-12-28T19:41:22.464Z,99.90
2022-12-28T19:43:49.377Z,99.90
2022-12-28T19:46:30.703Z,99.90
2022-12-28T19:48:59.107Z,99.90
2022-12-28T19:51:30.688Z,99.90
2022-12-28T19:53:59.221Z,99.90
2022-12-28T19:56:26.096Z,99.90
2022-12-28T19:58:56.480Z,99.90
2022-12-28T20:01:27.309Z,99.90
2022-12-28T20:03:55.066Z,99.90
2022-12-28T20:06:27.090Z,99.90
2022-12-28T20:08:56.591Z,99.90
2022-12-28T20:11:23.694Z,99.90
2022-12-28T20:13:55.320Z,99.90
2022-12-28T20:16:22.348Z,99.90
2022-12-28T20:18:53.637Z,99.90
2022-12-28T20:21:22.252Z,99.90
2022-12-28T20:23:50.341Z,99.90
2022-12-28T20:26:19.406Z,99.90
2022-12-28T20:28:48.231Z,99.90
2022-12-28T20:31:15.304Z,99.90
2022-12-28T20:33:43.097Z,99.90
2022-12-28T20:36:18.998Z,99.90
2022-12-28T20:38:46.450Z,99.90
2022-12-28T20:41:34.757Z,99.90
2022-12-28T20:44:04.200Z,99.90
2022-12-28T20:46:31.229Z,99.90
2022-12-28T20:48:59.189Z,99.90
2022-12-28T20:51:26.657Z,99.90
2022-12-28T20:53:53.620Z,99.90
2022-12-28T20:56:21.294Z,99.90
2022-12-28T20:58:48.116Z,99.90
2022-12-28T21:01:16.603Z,99.90
2022-12-28T21:03:44.323Z,99.90
2022-12-28T21:06:11.461Z,99.90
2022-12-28T21:08:38.167Z,99.90
2022-12-28T21:11:05.105Z,99.90
2022-12-28T21:13:32.166Z,99.90
2022-12-28T21:15:59.032Z,99.90
2022-12-28T21:18:25.796Z,99.90
2022-12-28T21:20:55.618Z,99.90
2022-12-28T21:23:22.907Z,99.90
2022-12-28T21:25:49.987Z,99.90
2022-12-28T21:28:16.794Z,99.90
2022-12-28T21:30:43.636Z,99.90
2022-12-28T21:33:10.322Z,99.90
2022-12-28T21:35:37.045Z,99.90
2022-12-28T21:38:05.245Z,99.90
2022-12-28T21:40:32.027Z,99.90
2022-12-28T21:42:58.886Z,99.90
2022-12-28T21:45:25.678Z,99.90
2022-12-28T21:47:52.590Z,99.90
2022-12-28T21:50:19.457Z,99.90
2022-12-28T21:52:46.218Z,99.90
2022-12-28T21:55:31.346Z,99.90
2022-12-28T21:57:59.745Z,99.90
2022-12-28T22:00:45.317Z,99.90
2022-12-28T22:03:30.854Z,99.90
2022-12-28T22:06:03.529Z,99.90
2022-12-28T22:08:49.943Z,99.90
2022-12-28T22:11:35.604Z,99.90
2022-12-28T22:14:02.854Z,99.90
2022-12-28T22:16:32.876Z,99.90
2022-12-28T22:19:02.574Z,99.90
2022-12-28T22:21:30.715Z,99.90
2022-12-28T22:23:57.471Z,99.90
2022-12-28T22:26:24.261Z,99.90
2022-12-28T22:28:51.027Z,99.90
2022-12-28T22:31:17.984Z,99.90
2022-12-28T22:33:45.190Z,99.90
2022-12-28T22:36:17.726Z,99.90
2022-12-28T22:38:45.106Z,99.90
2022-12-28T22:41:11.973Z,99.90
2022-12-28T22:43:38.733Z,99.90
2022-12-28T22:46:11.331Z,99.90
2022-12-28T22:48:38.435Z,99.90
2022-12-28T22:51:10.545Z,99.90
2022-12-28T22:53:38.306Z,99.90
2022-12-28T22:56:12.043Z,99.90
2022-12-28T22:58:38.883Z,99.90
2022-12-28T23:01:08.201Z,99.90
2022-12-28T23:03:38.256Z,99.90
2022-12-28T23:06:06.699Z,99.90
2022-12-28T23:08:33.608Z,99.90
2022-12-28T23:11:26.057Z,99.90
2022-12-28T23:13:52.853Z,99.90
2022-12-28T23:16:19.721Z,99.90
2022-12-28T23:19:04.743Z,99.90
2022-12-28T23:21:49.893Z,99.90
2022-12-28T23:24:35.351Z,99.90
2022-12-28T23:27:20.113Z,99.90
2022-12-28T23:29:46.903Z,99.90
2022-12-28T23:32:13.833Z,99.90
2022-12-28T23:34:40.503Z,99.90
2022-12-28T23:37:07.482Z,99.90
2022-12-28T23:39:34.245Z,99.90
2022-12-28T23:42:00.963Z,99.90
2022-12-28T23:44:27.739Z,99.90
2022-12-28T23:46:58.879Z,99.90
2022-12-28T23:49:26.649Z,99.90
2022-12-28T23:51:53.537Z,99.90
2022-12-28T23:54:20.789Z,99.90
2022-12-28T23:56:48.956Z,99.90
2022-12-28T23:59:15.985Z,99.90
